Kezdőlap
METAR-TAF:

METAR-TAF

Repülőterek :

Miri, Malajzia

földrajzi szélesség: 04-20N, földrajzi hosszúság: 113-59E, magasság: 17 m

Jelenlegi meteorológiai megfigyelések

A jelentés 58 perccel ezelõtt készült, 17:00 UTC
Különbözõ irányokból fújó szél 1 kt
Hőmérséklet 25°C
Páratartalom 94%
Légköri nyomás 1011 hPa
Látótávolság 10 km, vagy több
Szórványos felhőzet 1600 lábon
Szórványos felhőzet 15000 lábon
Szakadozott felhőzet 30000 lábon

METAR: WBGR 221700Z VRB01KT 9999 SCT016 SCT150 BKN300 25/24 Q1011

Idő: 01:58 (17:58 UTC)

Előrejelzés

A jelentés 58 perccel ezelõtt készült, 17:00 UTC
Az előrejelzés 22-én 18 óra UTC és 23-én 18 óra UTC között érvényes
Különbözõ irányokból fújó szél 3 kt
Látótávolság 10 km, vagy több
Kevés felhő 1600 lábon

TAF: WBGR 221700Z 2218/2318 VRB03KT 9999 FEW016

Meteorológiai megfigyelések és előrejelzések több, mint 4000 repülőtéren (METAR és TAF jelentéseket).

A térképen piros és sárga pontok jelzik az elérhető meteorológiai állomásokat.

Mozgassa az egeret a pont fölött, hogy megjelenjen az állomás neve.

Azután kattintson az időjárási megfigyelések és előrejelzések megtekintéséhez.

A térkép megváltoztatása: kattintson a fekete keresztel jelölt zöld gombra ráközelítéshez, a vonallal jelölt zöld gombra távolításhoz, vagy a zöld nyilakra a szomszédos térképek eléréséhez.


METAR-TAF: